Time;durP1;ratioP1;P1;durP2;ratioP2;P2;SDS_P1;SDS_P2;PMS_P1;PMS_P2;Temp;Humidity;BMP_temperature;BMP_pressure;BME280_temperature;BME280_humidity;BME280_pressure;Samples;Min_cycle;Max_cycle;Signal;HPM_P1;HPM_P2
2022/12/24 00:01:04;;;;;;;42.92;16.23;;;8.20;99.90;;;;;;4998519;28;92036;-78
2022/12/24 00:03:31;;;;;;;43.30;17.75;;;8.20;99.90;;;;;;4965796;28;91465;-78
2022/12/24 00:06:03;;;;;;;43.05;18.35;;;8.30;99.90;;;;;;4998685;28;88643;-78
2022/12/24 00:08:30;;;;;;;44.05;17.92;;;8.30;99.90;;;;;;4998243;28;91578;-78
2022/12/24 00:10:57;;;;;;;49.78;18.60;;;8.20;99.90;;;;;;4982482;28;89513;-78
2022/12/24 00:13:24;;;;;;;52.70;17.27;;;8.20;99.90;;;;;;5016166;28;88533;-78
2022/12/24 00:15:51;;;;;;;48.83;17.63;;;8.20;99.90;;;;;;4965605;28;89761;-78
2022/12/24 00:18:18;;;;;;;59.60;17.88;;;8.20;99.90;;;;;;4997997;28;90944;-78
2022/12/24 00:20:49;;;;;;;54.60;17.38;;;8.20;99.90;;;;;;4982383;28;89438;-78
2022/12/24 00:23:17;;;;;;;54.17;17.67;;;8.30;99.90;;;;;;5018533;28;89379;-78
2022/12/24 00:25:44;;;;;;;54.72;18.65;;;8.30;99.90;;;;;;4985781;28;88460;-78
2022/12/24 00:28:12;;;;;;;51.80;17.70;;;8.30;99.90;;;;;;4984613;28;95366;-78
2022/12/24 00:30:41;;;;;;;58.25;18.98;;;8.30;99.90;;;;;;5019583;28;89434;-78
2022/12/24 00:33:08;;;;;;;50.60;17.33;;;8.30;99.90;;;;;;4985086;28;89007;-78
2022/12/24 00:35:38;;;;;;;53.90;18.25;;;8.30;99.90;;;;;;5001575;28;90719;-78
2022/12/24 00:38:05;;;;;;;57.17;18.75;;;8.30;99.90;;;;;;5001615;28;89196;-78
2022/12/24 00:40:32;;;;;;;53.40;18.00;;;8.40;99.90;;;;;;5019441;28;89383;-78
2022/12/24 00:42:59;;;;;;;55.28;16.65;;;8.30;99.90;;;;;;4984782;28;91849;-78
2022/12/24 00:45:26;;;;;;;51.10;16.92;;;8.30;99.90;;;;;;4968229;28;90864;-78
2022/12/24 00:47:54;;;;;;;56.70;18.27;;;8.30;99.90;;;;;;4984713;28;92965;-78
2022/12/24 00:50:21;;;;;;;53.30;18.73;;;8.30;99.90;;;;;;5019383;28;89442;-78
2022/12/24 00:52:48;;;;;;;55.88;17.30;;;8.30;99.90;;;;;;5001610;28;88859;-78
2022/12/24 00:55:16;;;;;;;56.17;18.58;;;8.30;99.90;;;;;;5001004;28;89716;-78
2022/12/24 00:57:43;;;;;;;62.95;18.23;;;8.30;99.90;;;;;;4984335;28;91924;-78
2022/12/24 01:00:10;;;;;;;51.65;16.85;;;8.40;99.90;;;;;;5001511;28;89416;-78
2022/12/24 01:02:38;;;;;;;84.50;19.33;;;8.40;99.90;;;;;;4968569;28;93058;-78
2022/12/24 01:05:11;;;;;;;55.60;18.02;;;8.40;99.90;;;;;;5001369;28;95121;-78
2022/12/24 01:07:42;;;;;;;83.55;20.65;;;8.50;99.90;;;;;;4984235;28;93952;-78
2022/12/24 01:10:12;;;;;;;63.65;19.27;;;8.50;99.90;;;;;;5000746;28;92643;-78
2022/12/24 01:12:39;;;;;;;102.90;22.27;;;8.50;99.90;;;;;;5000792;28;91816;-78
2022/12/24 01:15:07;;;;;;;49.58;18.08;;;8.50;99.90;;;;;;4952061;28;90770;-78
2022/12/24 01:17:35;;;;;;;59.75;18.80;;;8.60;99.90;;;;;;5000784;28;89289;-78
2022/12/24 01:20:04;;;;;;;106.30;21.27;;;8.60;99.90;;;;;;4984063;28;91572;-78
2022/12/24 01:22:31;;;;;;;52.28;18.05;;;8.60;99.90;;;;;;5018176;28;89208;-78
2022/12/24 01:24:58;;;;;;;48.90;18.15;;;8.70;99.90;;;;;;4983881;28;93084;-78
2022/12/24 01:27:25;;;;;;;98.15;20.95;;;8.70;99.90;;;;;;5000357;28;91710;-78
2022/12/24 01:29:52;;;;;;;72.60;20.15;;;8.70;99.90;;;;;;4983891;28;92213;-78
2022/12/24 01:32:20;;;;;;;48.42;17.60;;;8.70;99.90;;;;;;5000381;28;96777;-78
2022/12/24 01:34:47;;;;;;;57.90;17.70;;;8.70;99.90;;;;;;5000778;28;88748;-78
2022/12/24 01:37:14;;;;;;;46.92;18.60;;;8.80;99.90;;;;;;5018324;28;89255;-78
2022/12/24 01:39:41;;;;;;;67.72;18.98;;;8.80;99.90;;;;;;4983904;28;91211;-78
2022/12/24 01:45:43;;;;;;;74.13;20.20;;;8.90;99.90;;;;;;5000287;28;91045;-78
2022/12/24 01:48:36;;;;;;;121.78;22.05;;;8.90;99.90;;;;;;4936909;28;89955;-78
2022/12/24 01:51:27;;;;;;;82.68;19.90;;;8.90;99.90;;;;;;4991540;28;92509;-78
2022/12/24 01:54:01;;;;;;;73.65;19.85;;;8.90;99.90;;;;;;4983749;28;91656;-78
2022/12/24 01:56:31;;;;;;;131.38;22.00;;;8.80;99.90;;;;;;5018151;28;88576;-78
2022/12/24 01:59:05;;;;;;;68.60;19.63;;;8.80;99.90;;;;;;5018238;28;88839;-78
2022/12/24 02:01:32;;;;;;;65.65;20.25;;;8.90;99.90;;;;;;4999972;28;91287;-78
2022/12/24 02:04:07;;;;;;;79.95;20.08;;;8.90;99.90;;;;;;5000482;28;89233;-78
2022/12/24 02:06:34;;;;;;;70.32;19.98;;;8.90;99.90;;;;;;5000822;28;88571;-78
2022/12/24 02:09:02;;;;;;;60.55;19.23;;;8.90;99.90;;;;;;5000300;28;88837;-78
2022/12/24 02:11:35;;;;;;;53.88;19.38;;;8.90;99.90;;;;;;4965371;28;89478;-78
2022/12/24 02:14:02;;;;;;;51.60;18.55;;;8.90;99.90;;;;;;4980049;28;91339;-78
2022/12/24 02:17:01;;;;;;;72.05;19.58;;;8.90;99.90;;;;;;4979861;28;90984;-78
2022/12/24 02:19:43;;;;;;;75.85;20.55;;;9.00;99.90;;;;;;4980399;28;88997;-78
2022/12/24 02:22:19;;;;;;;52.75;19.20;;;8.90;99.90;;;;;;4979819;28;92106;-78
2022/12/24 02:24:57;;;;;;;66.03;22.67;;;8.90;99.90;;;;;;4998048;28;89052;-78
2022/12/24 02:27:50;;;;;;;60.22;20.23;;;8.90;99.90;;;;;;4980072;28;90230;-78
2022/12/24 02:30:20;;;;;;;83.60;21.73;;;8.90;99.90;;;;;;4960332;28;88937;-78
2022/12/24 02:32:50;;;;;;;77.40;20.95;;;8.80;99.90;;;;;;4997188;28;91011;-76
2022/12/24 02:35:26;;;;;;;59.55;19.55;;;8.80;99.90;;;;;;4997636;28;88980;-76
2022/12/24 02:38:19;;;;;;;64.45;20.17;;;8.80;99.90;;;;;;4997348;28;88671;-77
2022/12/24 02:40:51;;;;;;;77.80;20.50;;;8.80;99.90;;;;;;4988382;28;89629;-77
2022/12/24 02:43:23;;;;;;;65.13;20.95;;;8.80;99.90;;;;;;4997668;28;89559;-77
2022/12/24 02:45:56;;;;;;;56.58;18.60;;;8.80;99.90;;;;;;4978670;28;90633;-78
2022/12/24 02:48:27;;;;;;;53.38;18.58;;;8.80;99.90;;;;;;4979254;28;91343;-77
2022/12/24 02:51:06;;;;;;;58.58;20.45;;;8.80;99.90;;;;;;4979466;28;91608;-77
2022/12/24 02:53:33;;;;;;;49.63;19.00;;;8.90;99.90;;;;;;4981203;28;90245;-77
2022/12/24 02:56:22;;;;;;;54.90;19.83;;;8.90;99.90;;;;;;4997337;28;89115;-77
2022/12/24 02:59:07;;;;;;;53.15;19.15;;;8.90;99.90;;;;;;4996636;28;88457;-77
2022/12/24 03:01:53;;;;;;;59.13;20.10;;;8.90;99.90;;;;;;4962755;28;90596;-77
2022/12/24 03:04:20;;;;;;;40.05;17.85;;;8.90;99.90;;;;;;4979206;28;92243;-77
2022/12/24 03:07:07;;;;;;;46.30;17.85;;;8.90;99.90;;;;;;4962354;28;91303;-77
2022/12/24 03:09:46;;;;;;;38.53;17.98;;;8.90;99.90;;;;;;4996920;28;88602;-77
2022/12/24 03:12:19;;;;;;;37.67;16.05;;;8.90;99.90;;;;;;4979012;28;91864;-77
2022/12/24 03:14:48;;;;;;;30.40;14.27;;;8.90;99.90;;;;;;4978743;28;91974;-77
2022/12/24 03:17:17;;;;;;;32.58;14.77;;;8.90;99.90;;;;;;4997061;28;88973;-77
2022/12/24 03:19:45;;;;;;;23.90;12.20;;;9.00;99.90;;;;;;4979199;28;88479;-77
2022/12/24 03:22:13;;;;;;;29.83;13.23;;;9.10;99.90;;;;;;4979447;28;88966;-77
2022/12/24 03:24:40;;;;;;;29.45;12.95;;;9.10;99.90;;;;;;4978875;28;95472;-77
2022/12/24 03:27:08;;;;;;;25.35;10.40;;;9.20;99.90;;;;;;4979367;28;89154;-77
2022/12/24 03:29:37;;;;;;;22.00;10.50;;;9.20;99.90;;;;;;4996421;28;88495;-77
2022/12/24 03:32:04;;;;;;;21.42;9.48;;;9.20;99.90;;;;;;4978594;28;92118;-77
2022/12/24 03:34:31;;;;;;;22.23;10.00;;;9.30;99.90;;;;;;4979957;28;89553;-77
2022/12/24 03:36:58;;;;;;;23.45;9.73;;;9.30;99.90;;;;;;4962417;28;90010;-76
2022/12/24 03:39:25;;;;;;;22.20;8.18;;;9.40;99.90;;;;;;4979915;28;88585;-76
2022/12/24 03:41:54;;;;;;;18.00;8.18;;;9.40;99.90;;;;;;4979884;28;88875;-77
2022/12/24 03:44:21;;;;;;;20.90;7.65;;;9.40;99.90;;;;;;4997354;28;87940;-76
2022/12/24 03:46:48;;;;;;;22.45;7.80;;;9.40;99.90;;;;;;4979307;28;89412;-77
2022/12/24 03:49:15;;;;;;;18.05;6.57;;;9.40;99.90;;;;;;4963452;28;90017;-76
2022/12/24 03:51:42;;;;;;;20.38;5.85;;;9.50;99.90;;;;;;4963023;28;91903;-77
2022/12/24 03:54:09;;;;;;;33.63;7.63;;;9.50;99.90;;;;;;4979676;28;88702;-77
2022/12/24 03:56:36;;;;;;;32.78;6.20;;;9.50;99.90;;;;;;4962426;28;89388;-77
2022/12/24 03:59:03;;;;;;;27.33;5.80;;;9.50;99.90;;;;;;4949658;28;91346;-77
2022/12/24 04:01:30;;;;;;;31.38;6.32;;;9.50;99.90;;;;;;4982912;28;89123;-77
2022/12/24 04:03:57;;;;;;;30.52;5.55;;;9.60;99.90;;;;;;4966537;28;88617;-77
2022/12/24 04:06:24;;;;;;;20.15;4.65;;;9.50;99.90;;;;;;4982686;28;89416;-77
2022/12/24 04:08:51;;;;;;;27.42;5.93;;;9.60;99.90;;;;;;4982676;28;88449;-77
2022/12/24 04:11:18;;;;;;;29.55;5.88;;;9.60;99.90;;;;;;5000368;28;89144;-77
2022/12/24 04:13:45;;;;;;;25.20;4.95;;;9.60;99.90;;;;;;4982630;28;88706;-76
2022/12/24 04:16:14;;;;;;;26.55;5.00;;;9.60;99.90;;;;;;5000390;28;91687;-76
2022/12/24 04:18:42;;;;;;;38.38;5.93;;;9.70;99.90;;;;;;4981945;28;91773;-77
2022/12/24 04:21:10;;;;;;;27.52;5.15;;;9.60;99.90;;;;;;4982116;28;89408;-76
2022/12/24 04:23:38;;;;;;;33.78;4.80;;;9.60;99.90;;;;;;5000203;28;89532;-76
2022/12/24 04:26:08;;;;;;;28.75;4.78;;;9.70;99.90;;;;;;5000239;28;88016;-77
2022/12/24 04:28:36;;;;;;;32.45;4.93;;;9.70;99.90;;;;;;4982222;28;88373;-76
2022/12/24 04:31:07;;;;;;;26.73;4.80;;;9.70;99.90;;;;;;4982417;28;88790;-77
2022/12/24 04:33:35;;;;;;;23.40;4.20;;;9.70;99.90;;;;;;4982671;28;88777;-76
2022/12/24 04:36:03;;;;;;;31.58;4.65;;;9.70;99.90;;;;;;4982447;28;88106;-77
2022/12/24 04:38:31;;;;;;;29.42;4.60;;;9.70;99.90;;;;;;5000360;28;88478;-77
2022/12/24 04:41:07;;;;;;;28.77;5.40;;;9.70;99.90;;;;;;4982032;28;87931;-77
2022/12/24 04:43:34;;;;;;;24.92;4.50;;;9.70;99.90;;;;;;5000130;28;88748;-77
2022/12/24 04:46:26;;;;;;;29.15;5.28;;;9.60;99.90;;;;;;4965175;28;89257;-77
2022/12/24 04:48:53;;;;;;;28.58;4.55;;;9.60;99.90;;;;;;4982035;28;88310;-77
2022/12/24 04:51:21;;;;;;;21.60;4.65;;;9.50;99.90;;;;;;4981744;28;91613;-76
2022/12/24 04:53:48;;;;;;;31.50;4.68;;;9.50;99.90;;;;;;4981518;28;90394;-77
2022/12/24 04:56:21;;;;;;;22.15;4.53;;;9.50;99.90;;;;;;4965653;28;89407;-77
2022/12/24 04:58:48;;;;;;;32.88;4.88;;;9.50;99.90;;;;;;4980747;28;91328;-77
2022/12/24 05:01:21;;;;;;;29.88;5.28;;;9.50;99.90;;;;;;4999791;28;88776;-77
2022/12/24 05:03:49;;;;;;;21.63;4.43;;;9.50;99.90;;;;;;4999830;28;88776;-77
2022/12/24 05:06:21;;;;;;;27.30;4.35;;;9.40;99.90;;;;;;4982010;28;87966;-77
2022/12/24 05:08:48;;;;;;;32.20;5.47;;;9.40;99.90;;;;;;4998854;28;88123;-77
2022/12/24 05:11:16;;;;;;;32.42;4.97;;;9.40;99.90;;;;;;4981419;28;89693;-77
2022/12/24 05:13:44;;;;;;;30.05;5.13;;;9.40;99.90;;;;;;4999369;28;89485;-77
2022/12/24 05:16:15;;;;;;;34.17;5.72;;;9.40;99.90;;;;;;4982356;28;88042;-76
2022/12/24 05:18:42;;;;;;;34.55;5.20;;;9.40;99.90;;;;;;4981507;28;91517;-76
2022/12/24 05:21:13;;;;;;;34.20;5.40;;;9.40;99.90;;;;;;4999223;28;88892;-76
2022/12/24 05:26:28;;;;;;;25.40;5.05;;;9.40;99.90;;;;;;4981324;28;88313;-76
2022/12/24 05:28:57;;;;;;;33.60;5.30;;;9.50;99.90;;;;;;4998985;28;89400;-77
2022/12/24 05:31:25;;;;;;;33.88;5.18;;;9.50;99.90;;;;;;4981340;28;88729;-77
2022/12/24 05:33:53;;;;;;;31.58;5.80;;;9.40;99.90;;;;;;4998901;28;88412;-77
2022/12/24 05:36:22;;;;;;;32.10;5.65;;;9.50;99.90;;;;;;4998819;28;88785;-77
2022/12/24 05:38:49;;;;;;;24.05;4.85;;;9.50;99.90;;;;;;4981326;28;88399;-77
2022/12/24 05:41:17;;;;;;;41.15;5.25;;;9.60;99.90;;;;;;4980761;28;91582;-76
2022/12/24 05:43:44;;;;;;;37.90;5.28;;;9.60;99.90;;;;;;4997530;28;91201;-76
2022/12/24 05:46:13;;;;;;;34.97;5.07;;;9.60;99.90;;;;;;4980813;28;90109;-76
2022/12/24 05:48:41;;;;;;;41.67;6.45;;;9.60;99.90;;;;;;4998898;28;88032;-76
2022/12/24 05:51:10;;;;;;;34.15;5.38;;;9.60;99.90;;;;;;4998695;28;88867;-76
2022/12/24 05:53:38;;;;;;;35.38;6.28;;;9.70;99.90;;;;;;4981421;28;89724;-76
2022/12/24 05:56:09;;;;;;;42.38;6.53;;;9.70;99.90;;;;;;4981072;28;88456;-77
2022/12/24 05:58:37;;;;;;;45.38;6.15;;;9.70;99.90;;;;;;4964318;28;90168;-77
2022/12/24 06:01:05;;;;;;;35.80;6.13;;;9.60;99.90;;;;;;4998457;28;89871;-77
2022/12/24 06:03:33;;;;;;;32.33;5.70;;;9.60;99.90;;;;;;4980886;28;90881;-77
2022/12/24 06:06:02;;;;;;;40.00;6.03;;;9.60;99.90;;;;;;4980573;28;89827;-77
2022/12/24 06:08:30;;;;;;;31.33;5.28;;;9.60;99.90;;;;;;4981040;28;88486;-77
2022/12/24 06:10:59;;;;;;;41.90;5.70;;;9.60;99.90;;;;;;4963953;28;91495;-77
2022/12/24 06:13:27;;;;;;;32.35;6.15;;;9.50;99.90;;;;;;4980615;28;89850;-77
2022/12/24 06:15:55;;;;;;;41.45;5.65;;;9.60;99.90;;;;;;4998753;28;88397;-77
2022/12/24 06:18:22;;;;;;;40.80;6.40;;;9.60;99.90;;;;;;4980942;28;90998;-77
2022/12/24 06:20:53;;;;;;;39.70;6.30;;;9.60;99.90;;;;;;4997446;28;88095;-77
2022/12/24 06:23:21;;;;;;;33.95;5.68;;;9.60;99.90;;;;;;4998462;28;88404;-77
2022/12/24 06:25:49;;;;;;;37.88;6.72;;;9.60;99.90;;;;;;4980018;28;92459;-77
2022/12/24 06:28:17;;;;;;;34.60;6.05;;;9.60;99.90;;;;;;4998155;28;88369;-77
2022/12/24 06:30:49;;;;;;;36.13;5.82;;;9.60;99.90;;;;;;4980063;28;91506;-77
2022/12/24 06:33:16;;;;;;;33.28;5.88;;;9.70;99.90;;;;;;4980491;28;88672;-77
2022/12/24 06:35:47;;;;;;;34.17;6.53;;;9.70;99.90;;;;;;4980767;28;88760;-77
2022/12/24 06:38:15;;;;;;;37.47;7.57;;;9.70;99.90;;;;;;4963892;28;91293;-76
2022/12/24 06:40:43;;;;;;;41.72;6.40;;;9.70;99.90;;;;;;4998162;28;88964;-76
2022/12/24 06:43:11;;;;;;;44.65;6.95;;;9.70;99.90;;;;;;4998414;28;87581;-77
2022/12/24 06:45:39;;;;;;;48.97;6.05;;;9.70;99.90;;;;;;4980228;28;89324;-77
2022/12/24 06:48:06;;;;;;;42.35;6.68;;;9.70;99.90;;;;;;4997752;28;88461;-77
2022/12/24 06:50:33;;;;;;;43.85;6.40;;;9.70;99.90;;;;;;4963821;28;89900;-77
2022/12/24 06:53:00;;;;;;;43.40;6.78;;;9.70;99.90;;;;;;4980060;28;89135;-77
2022/12/24 06:55:27;;;;;;;41.33;6.30;;;9.70;99.90;;;;;;4979989;28;88599;-77
2022/12/24 06:57:54;;;;;;;29.10;5.45;;;9.70;99.90;;;;;;4964089;28;88619;-76
2022/12/24 07:00:21;;;;;;;37.78;6.57;;;9.70;99.90;;;;;;4997472;28;88924;-76
2022/12/24 07:02:48;;;;;;;44.65;6.57;;;9.70;99.90;;;;;;4996147;28;91168;-76
2022/12/24 07:05:15;;;;;;;39.42;7.05;;;9.70;99.90;;;;;;4997790;28;88064;-77
2022/12/24 07:07:44;;;;;;;35.00;7.20;;;9.70;99.90;;;;;;4998194;28;88752;-77
2022/12/24 07:10:14;;;;;;;41.00;7.35;;;9.60;99.90;;;;;;4963318;28;91523;-77
2022/12/24 07:12:42;;;;;;;42.05;7.68;;;9.60;99.90;;;;;;4996560;28;89725;-77
2022/12/24 07:15:10;;;;;;;38.17;8.43;;;9.60;99.90;;;;;;4996927;28;91766;-77
2022/12/24 07:17:38;;;;;;;36.20;7.30;;;9.50;99.90;;;;;;4980128;28;88111;-77
2022/12/24 07:20:07;;;;;;;47.55;7.38;;;9.50;99.90;;;;;;4979857;28;88703;-77
2022/12/24 07:22:34;;;;;;;37.03;8.25;;;9.50;99.90;;;;;;4980077;28;88663;-77
2022/12/24 07:25:01;;;;;;;43.53;8.80;;;9.40;99.90;;;;;;4997639;28;87917;-77
2022/12/24 07:27:29;;;;;;;47.55;8.65;;;9.40;99.90;;;;;;4963341;28;89498;-76
2022/12/24 07:29:56;;;;;;;54.03;8.70;;;9.50;99.90;;;;;;4979792;28;88416;-76
2022/12/24 07:32:22;;;;;;;47.97;8.50;;;9.50;99.90;;;;;;4982724;28;88593;-76
2022/12/24 07:34:49;;;;;;;40.10;9.18;;;9.50;99.90;;;;;;4983292;28;87963;-76
2022/12/24 07:37:16;;;;;;;39.67;7.90;;;9.60;99.90;;;;;;4966622;28;101849;-76
2022/12/24 07:39:43;;;;;;;49.10;10.13;;;9.60;99.90;;;;;;4983144;28;89456;-76
2022/12/24 07:42:10;;;;;;;36.58;8.10;;;9.60;99.90;;;;;;4965925;28;92505;-76
2022/12/24 07:44:38;;;;;;;36.72;6.72;;;9.70;99.90;;;;;;4982745;28;91413;-76
2022/12/24 07:47:05;;;;;;;38.22;7.90;;;9.70;99.90;;;;;;4983415;28;88403;-76
2022/12/24 07:49:33;;;;;;;36.25;8.63;;;9.80;99.90;;;;;;5000762;28;89001;-76
2022/12/24 07:52:01;;;;;;;39.97;7.80;;;9.80;99.90;;;;;;4983096;28;88538;-76
2022/12/24 07:54:28;;;;;;;33.85;7.75;;;9.80;99.90;;;;;;4983166;28;88103;-76
2022/12/24 07:56:55;;;;;;;34.47;8.35;;;9.90;99.90;;;;;;4983004;28;91215;-76
2022/12/24 07:59:22;;;;;;;37.17;8.15;;;9.90;99.90;;;;;;4982307;28;88914;-77
2022/12/24 08:01:49;;;;;;;35.95;7.82;;;10.00;99.90;;;;;;4966438;28;89658;-77
2022/12/24 08:04:16;;;;;;;40.65;8.45;;;10.00;99.90;;;;;;5000022;28;88790;-77
2022/12/24 08:06:43;;;;;;;36.53;8.45;;;10.10;99.90;;;;;;4982931;28;88653;-77
2022/12/24 08:09:13;;;;;;;52.40;8.77;;;10.10;99.90;;;;;;4965950;28;91759;-77
2022/12/24 08:11:40;;;;;;;48.08;8.75;;;10.10;99.90;;;;;;4982549;28;88911;-77
2022/12/24 08:14:12;;;;;;;40.97;8.10;;;10.20;99.90;;;;;;4966717;28;89546;-77
2022/12/24 08:16:39;;;;;;;40.53;8.27;;;10.20;99.90;;;;;;4982398;28;91438;-77
2022/12/24 08:19:06;;;;;;;42.13;8.38;;;10.20;99.90;;;;;;4966532;28;89034;-77
2022/12/24 08:21:33;;;;;;;44.92;7.60;;;10.20;99.90;;;;;;4982676;28;88788;-77
2022/12/24 08:24:00;;;;;;;46.00;7.82;;;10.20;99.90;;;;;;5000227;28;87984;-77
2022/12/24 08:26:27;;;;;;;36.92;7.53;;;10.30;99.90;;;;;;5000330;28;88667;-77
2022/12/24 08:28:54;;;;;;;40.83;7.32;;;10.30;99.90;;;;;;4965744;28;92417;-77
2022/12/24 08:31:21;;;;;;;38.15;7.57;;;10.30;99.90;;;;;;4966118;28;89347;-77
2022/12/24 08:33:48;;;;;;;41.53;6.82;;;10.30;99.90;;;;;;4966474;28;88028;-77
2022/12/24 08:36:15;;;;;;;43.60;8.93;;;10.40;99.90;;;;;;4982304;28;88559;-77
2022/12/24 08:38:42;;;;;;;36.78;7.00;;;10.40;99.90;;;;;;4981916;28;90100;-77
2022/12/24 08:41:09;;;;;;;32.97;8.25;;;10.40;99.90;;;;;;4981833;28;90919;-77
2022/12/24 08:43:36;;;;;;;34.53;7.18;;;10.40;99.90;;;;;;4965333;28;91135;-77
2022/12/24 08:46:05;;;;;;;44.25;7.88;;;10.50;99.90;;;;;;5000684;28;88324;-77
2022/12/24 08:48:33;;;;;;;38.33;7.13;;;10.50;99.90;;;;;;4999652;28;88909;-77
2022/12/24 08:51:00;;;;;;;34.28;7.18;;;10.50;99.90;;;;;;4999856;28;88724;-77
2022/12/24 08:53:27;;;;;;;39.70;7.40;;;10.50;99.90;;;;;;4964931;28;89524;-77
2022/12/24 08:56:01;;;;;;;41.47;6.88;;;10.50;99.90;;;;;;4966152;28;88394;-77
2022/12/24 08:58:30;;;;;;;36.13;6.90;;;10.50;99.90;;;;;;4999481;28;88936;-77
2022/12/24 09:00:58;;;;;;;46.20;7.00;;;10.50;99.90;;;;;;5000094;28;89031;-77
2022/12/24 09:03:25;;;;;;;38.67;6.70;;;10.50;99.90;;;;;;4999745;28;88015;-77
2022/12/24 09:05:54;;;;;;;29.05;7.68;;;10.50;99.90;;;;;;4999576;28;88068;-77
2022/12/24 09:08:21;;;;;;;35.65;6.85;;;10.60;99.90;;;;;;4997213;28;93168;-77
2022/12/24 09:10:48;;;;;;;36.88;8.48;;;10.60;99.90;;;;;;4979623;28;95526;-77
2022/12/24 09:13:15;;;;;;;38.20;6.85;;;10.60;99.90;;;;;;4997535;28;92416;-77
2022/12/24 09:15:42;;;;;;;31.35;6.78;;;10.60;99.90;;;;;;4997045;28;92454;-77
2022/12/24 09:18:09;;;;;;;39.42;6.75;;;10.70;99.90;;;;;;4978479;28;95743;-77
2022/12/24 09:20:36;;;;;;;32.97;7.15;;;10.70;99.90;;;;;;4979064;28;95577;-77
2022/12/24 09:23:07;;;;;;;32.22;7.68;;;10.70;99.90;;;;;;4964581;28;92568;-77
2022/12/24 09:25:34;;;;;;;36.65;8.35;;;10.80;99.90;;;;;;4979003;28;97943;-77
2022/12/24 09:28:01;;;;;;;33.20;7.38;;;10.80;99.90;;;;;;4962786;28;95778;-77
2022/12/24 09:30:28;;;;;;;35.40;8.80;;;10.80;99.90;;;;;;4996760;28;93113;-77
2022/12/24 09:32:55;;;;;;;45.15;8.60;;;10.80;99.90;;;;;;4997287;28;92456;-77
2022/12/24 09:35:22;;;;;;;38.45;7.88;;;10.90;99.90;;;;;;4979133;28;91769;-77
2022/12/24 09:38:01;;;;;;;40.42;8.43;;;10.90;99.90;;;;;;4979244;28;93245;-77
2022/12/24 09:40:37;;;;;;;31.58;8.23;;;10.90;99.90;;;;;;4996942;28;93060;-77
2022/12/24 09:43:14;;;;;;;32.90;8.52;;;11.00;99.90;;;;;;4996046;28;94837;-77
2022/12/24 09:46:07;;;;;;;38.83;7.57;;;11.00;99.90;;;;;;4997262;28;93193;-77
2022/12/24 09:48:40;;;;;;;36.80;7.65;;;11.10;99.90;;;;;;4978455;28;95752;-77
2022/12/24 09:51:10;;;;;;;36.05;9.18;;;11.10;99.90;;;;;;4977713;28;95669;-77
2022/12/24 09:54:07;;;;;;;40.75;7.60;;;11.10;99.90;;;;;;4978760;28;92534;-77
2022/12/24 09:56:42;;;;;;;38.85;8.00;;;11.20;99.90;;;;;;4978596;28;92540;-77
2022/12/24 09:59:14;;;;;;;31.80;8.65;;;11.10;99.90;;;;;;4978135;28;96151;-77
2022/12/24 10:01:41;;;;;;;42.28;8.73;;;11.10;99.90;;;;;;4979229;28;93181;-77
2022/12/24 10:04:21;;;;;;;29.40;7.05;;;11.10;99.90;;;;;;4996672;28;92976;-77
2022/12/24 10:07:24;;;;;;;30.40;9.02;;;11.20;99.90;;;;;;4996606;28;92565;-77
2022/12/24 10:10:04;;;;;;;34.03;8.48;;;11.20;99.90;;;;;;4960822;28;98498;-77
2022/12/24 10:12:47;;;;;;;34.95;9.02;;;11.10;99.90;;;;;;4995710;28;97136;-77
2022/12/24 10:15:25;;;;;;;38.95;7.90;;;11.20;99.90;;;;;;4978608;28;92471;-77
2022/12/24 10:18:13;;;;;;;32.80;8.05;;;11.20;99.90;;;;;;4978288;28;92474;-77
2022/12/24 10:20:50;;;;;;;33.08;8.13;;;11.20;99.90;;;;;;4961616;28;96083;-77
2022/12/24 10:23:36;;;;;;;32.45;7.43;;;11.20;99.90;;;;;;4996385;28;93267;-77
2022/12/24 10:26:26;;;;;;;31.02;6.90;;;11.30;99.90;;;;;;4996486;28;92454;-77
2022/12/24 10:29:05;;;;;;;34.72;10.15;;;11.20;99.90;;;;;;4996617;28;91590;-77
2022/12/24 10:31:35;;;;;;;28.45;6.05;;;11.20;99.90;;;;;;4977315;28;94360;-77
2022/12/24 10:34:11;;;;;;;24.15;5.75;;;11.30;99.90;;;;;;4978142;28;96583;-77
2022/12/24 10:36:38;;;;;;;24.90;5.85;;;11.30;99.90;;;;;;4977341;28;95381;-77
2022/12/24 10:39:17;;;;;;;20.10;4.45;;;11.30;99.90;;;;;;4978333;28;92997;-77
2022/12/24 10:41:47;;;;;;;21.38;5.95;;;11.40;99.90;;;;;;4977565;28;95812;-77
2022/12/24 10:44:17;;;;;;;21.92;5.03;;;11.40;99.90;;;;;;4995626;28;93122;-77
2022/12/24 10:46:45;;;;;;;24.02;5.65;;;11.40;99.90;;;;;;4978331;28;92608;-77
2022/12/24 10:49:15;;;;;;;25.70;5.93;;;11.40;99.90;;;;;;4978507;28;92552;-77
2022/12/24 10:52:11;;;;;;;30.63;6.43;;;11.40;99.90;;;;;;4961337;28;96929;-77
2022/12/24 10:55:04;;;;;;;20.63;4.70;;;11.50;99.90;;;;;;4995712;28;92985;-77
2022/12/24 10:57:31;;;;;;;22.15;4.07;;;11.50;99.90;;;;;;4996166;28;92414;-77
2022/12/24 10:59:59;;;;;;;19.98;4.97;;;11.50;99.90;;;;;;4995450;28;92659;-77
2022/12/24 11:02:30;;;;;;;24.35;5.43;;;11.60;99.90;;;;;;4976727;28;95742;-77
2022/12/24 11:04:59;;;;;;;23.40;5.22;;;11.60;99.90;;;;;;4978055;28;95361;-77
2022/12/24 11:07:27;;;;;;;16.35;4.47;;;11.70;99.90;;;;;;4977733;28;92617;-77
2022/12/24 11:09:55;;;;;;;20.30;4.43;;;11.80;99.90;;;;;;4961456;28;92602;-77
2022/12/24 11:12:25;;;;;;;27.55;5.65;;;11.90;99.90;;;;;;4977901;28;93625;-77
2022/12/24 11:15:22;;;;;;;19.13;4.88;;;11.90;99.90;;;;;;4977213;28;95719;-77
2022/12/24 11:18:03;;;;;;;25.00;5.32;;;12.00;99.90;;;;;;4960213;28;92495;-77
2022/12/24 11:20:34;;;;;;;19.85;5.75;;;12.10;99.90;;;;;;4978045;28;92449;-77
2022/12/24 11:23:02;;;;;;;28.55;5.65;;;12.20;99.90;;;;;;4977960;28;93285;-77
2022/12/24 11:25:36;;;;;;;26.27;4.80;;;12.20;99.90;;;;;;4960975;28;95777;-77
2022/12/24 11:28:18;;;;;;;18.52;4.97;;;12.30;99.90;;;;;;4994485;28;94772;-77
2022/12/24 11:30:57;;;;;;;20.83;5.20;;;12.30;99.90;;;;;;4977257;28;92415;-74
2022/12/24 11:33:24;;;;;;;25.05;5.50;;;12.20;99.90;;;;;;4995410;28;93587;-76
2022/12/24 11:35:56;;;;;;;21.80;4.40;;;12.20;99.90;;;;;;4994457;28;95480;-76
2022/12/24 11:38:25;;;;;;;24.90;5.00;;;12.10;99.90;;;;;;4995803;28;92862;-76
2022/12/24 11:41:10;;;;;;;28.73;5.25;;;12.10;99.90;;;;;;4977175;28;92553;-75
2022/12/24 11:43:45;;;;;;;27.20;4.88;;;12.00;99.90;;;;;;4995197;28;93239;-75
2022/12/24 11:46:37;;;;;;;27.65;5.03;;;12.00;99.90;;;;;;4977392;28;96136;-76
2022/12/24 11:49:21;;;;;;;22.50;4.18;;;12.00;99.90;;;;;;4967803;28;92835;-76
2022/12/24 11:52:00;;;;;;;;;;;11.90;99.90;;;;;;4977451;28;92522;-76
2022/12/24 11:54:34;;;;;;;28.92;4.57;;;11.80;99.90;;;;;;4994907;28;95687;-76
2022/12/24 11:57:03;;;;;;;24.65;5.50;;;11.70;99.90;;;;;;4993982;28;95467;-76
2022/12/24 11:59:36;;;;;;;28.98;6.13;;;11.80;99.90;;;;;;4973590;28;92578;-76
2022/12/24 12:02:24;;;;;;;22.10;4.85;;;11.80;99.90;;;;;;4973847;28;92487;-76
2022/12/24 12:04:58;;;;;;;32.63;5.22;;;11.90;99.90;;;;;;4974806;28;93419;-76
2022/12/24 12:07:27;;;;;;;;;;;11.90;99.90;;;;;;4974195;28;92951;-76
2022/12/24 12:10:14;;;;;;;25.20;4.35;;;11.80;99.90;;;;;;4974669;28;92574;-75
2022/12/24 12:12:45;;;;;;;30.85;6.60;;;11.70;99.90;;;;;;4975415;28;91749;-77
2022/12/24 12:15:19;;;;;;;24.65;5.20;;;11.80;99.90;;;;;;4975235;28;93183;-76
2022/12/24 12:18:12;;;;;;;28.20;4.75;;;11.80;99.90;;;;;;4974706;28;93220;-76
2022/12/24 12:20:50;;;;;;;28.02;4.93;;;11.90;99.90;;;;;;4977215;28;94899;-77
2022/12/24 12:23:25;;;;;;;27.15;4.97;;;11.90;99.90;;;;;;4960594;28;92461;-76
2022/12/24 12:26:14;;;;;;;25.80;4.70;;;11.90;99.90;;;;;;4977854;28;93315;-75
2022/12/24 12:29:05;;;;;;;25.88;4.78;;;12.00;99.90;;;;;;4978172;28;93226;-75
2022/12/24 12:31:43;;;;;;;24.20;4.60;;;12.00;99.90;;;;;;4977767;28;92480;-76
2022/12/24 12:34:31;;;;;;;19.00;4.63;;;12.00;99.90;;;;;;4977943;28;92482;-76
2022/12/24 12:37:08;;;;;;;18.20;3.60;;;12.20;99.90;;;;;;4976383;28;96542;-76
2022/12/24 12:39:41;;;;;;;21.48;3.95;;;12.20;99.90;;;;;;4977080;28;93137;-76
2022/12/24 12:42:14;;;;;;;22.15;4.43;;;12.20;99.90;;;;;;4978208;28;92970;-76
2022/12/24 12:44:55;;;;;;;22.83;3.87;;;12.20;99.90;;;;;;4978054;28;92454;-76
2022/12/24 12:48:03;;;;;;;24.38;5.07;;;12.30;99.90;;;;;;4974420;28;95550;-76
2022/12/24 12:50:45;;;;;;;23.58;4.93;;;12.30;99.90;;;;;;4975630;28;95262;-76
2022/12/24 12:53:30;;;;;;;25.65;4.95;;;12.40;99.90;;;;;;4976231;28;92783;-77
2022/12/24 12:56:12;;;;;;;21.73;3.65;;;12.30;99.90;;;;;;4977815;28;92887;-76
2022/12/24 12:58:54;;;;;;;19.63;3.72;;;12.40;99.90;;;;;;4980653;28;93359;-76
2022/12/24 13:01:40;;;;;;;22.00;3.65;;;12.40;99.90;;;;;;4979475;28;93176;-76
2022/12/24 13:04:32;;;;;;;22.67;3.67;;;12.40;99.90;;;;;;4979467;28;92462;-75
2022/12/24 13:07:18;;;;;;;23.77;4.72;;;12.40;99.90;;;;;;4979714;28;91820;-75
2022/12/24 13:10:06;;;;;;;20.95;3.75;;;12.30;99.90;;;;;;4979317;28;95932;-75